Decoded Metar for LIMC (MILANO MALPENSA in ITALY) (IATA:MXP) | Meteo·Mobile Aviation Weather
aviador You're here:

LIMC Decoded Metar

MILANO MALPENSA in ITALY
Report Time2019-11-12 03:50:00
UTC Time2019-11-12 04:20:39
Flight Rules vfr VFR
Wind340° at 05 kt
W.Decomp.*RWY 35: 4.9 kt HW 1 kt LCW
Visibility9999 m
Phenomena:Light Rain
Clouds:Broken 040 Hf
Ceiling4,000 ft
Temp06°C (ISA -8)
Dew Point06°C (100% RH)
AAT3.3°C
QNH1005 hPa
Density Alt177 ft
Elevation692 ft
Report Wrong Elevation
Raw Report
METAR LIMC 120350Z 34005KT 9999 -RA BKN040 06/06 Q1005 NOSIG=

Extra information for LIMC:More info

Metar Taf Metar & Taf Last 4 Metars F.Rules Stats Wind Profile Meteogram Temp Stats Airport Information Weather charts Add Link Nearby VenuesMetar ALERT Operation Metar Decoded Social comments